sensor_id;sensor_type;location;lat;lon;timestamp;temperature;humidity
49489;SHT31;35382;51.484;11.476;2023-06-24T00:01:01;15.19;97.27
49489;SHT31;35382;51.484;11.476;2023-06-24T00:02:42;15.29;97.40
49489;SHT31;35382;51.484;11.476;2023-06-24T00:04:25;15.36;96.82
49489;SHT31;35382;51.484;11.476;2023-06-24T00:06:06;15.39;96.86
49489;SHT31;35382;51.484;11.476;2023-06-24T00:07:47;15.41;96.70
49489;SHT31;35382;51.484;11.476;2023-06-24T00:09:30;15.35;96.56
49489;SHT31;35382;51.484;11.476;2023-06-24T00:11:11;15.32;97.18
49489;SHT31;35382;51.484;11.476;2023-06-24T00:12:52;15.31;97.45
49489;SHT31;35382;51.484;11.476;2023-06-24T00:14:33;15.27;97.95
49489;SHT31;35382;51.484;11.476;2023-06-24T00:16:14;15.24;97.86
49489;SHT31;35382;51.484;11.476;2023-06-24T00:17:55;15.31;97.59
49489;SHT31;35382;51.484;11.476;2023-06-24T00:19:45;15.32;96.92
49489;SHT31;35382;51.484;11.476;2023-06-24T00:21:27;15.24;97.01
49489;SHT31;35382;51.484;11.476;2023-06-24T00:23:12;15.27;96.87
49489;SHT31;35382;51.484;11.476;2023-06-24T00:24:55;15.22;96.91
49489;SHT31;35382;51.484;11.476;2023-06-24T00:26:37;15.21;96.80
49489;SHT31;35382;51.484;11.476;2023-06-24T00:28:18;15.25;96.39
49489;SHT31;35382;51.484;11.476;2023-06-24T00:29:59;15.12;96.56
49489;SHT31;35382;51.484;11.476;2023-06-24T00:31:40;15.18;96.76
49489;SHT31;35382;51.484;11.476;2023-06-24T00:33:21;15.17;96.91
49489;SHT31;35382;51.484;11.476;2023-06-24T00:35:02;15.14;96.54
49489;SHT31;35382;51.484;11.476;2023-06-24T00:36:44;14.99;97.26
49489;SHT31;35382;51.484;11.476;2023-06-24T00:38:27;15.04;97.51
49489;SHT31;35382;51.484;11.476;2023-06-24T00:40:12;14.94;97.69
49489;SHT31;35382;51.484;11.476;2023-06-24T00:41:56;15.04;97.87
49489;SHT31;35382;51.484;11.476;2023-06-24T00:43:37;14.99;97.82
49489;SHT31;35382;51.484;11.476;2023-06-24T00:45:20;15.01;97.68
49489;SHT31;35382;51.484;11.476;2023-06-24T00:47:01;15.05;97.62
49489;SHT31;35382;51.484;11.476;2023-06-24T00:48:42;15.14;97.47
49489;SHT31;35382;51.484;11.476;2023-06-24T00:50:24;15.21;97.48
49489;SHT31;35382;51.484;11.476;2023-06-24T00:52:08;15.21;97.33
49489;SHT31;35382;51.484;11.476;2023-06-24T00:53:53;15.17;97.37
49489;SHT31;35382;51.484;11.476;2023-06-24T00:55:34;15.17;97.49
49489;SHT31;35382;51.484;11.476;2023-06-24T00:57:15;15.22;96.67
49489;SHT31;35382;51.484;11.476;2023-06-24T00:58:58;15.09;96.53
49489;SHT31;35382;51.484;11.476;2023-06-24T01:00:43;15.08;96.75
49489;SHT31;35382;51.484;11.476;2023-06-24T01:02:26;15.05;96.94
49489;SHT31;35382;51.484;11.476;2023-06-24T01:04:08;15.01;97.30
49489;SHT31;35382;51.484;11.476;2023-06-24T01:05:49;15.01;97.20
49489;SHT31;35382;51.484;11.476;2023-06-24T01:07:31;15.02;97.15
49489;SHT31;35382;51.484;11.476;2023-06-24T01:09:12;15.01;97.16
49489;SHT31;35382;51.484;11.476;2023-06-24T01:10:53;15.01;96.83
49489;SHT31;35382;51.484;11.476;2023-06-24T01:12:39;14.94;96.58
49489;SHT31;35382;51.484;11.476;2023-06-24T01:14:20;14.94;96.12
49489;SHT31;35382;51.484;11.476;2023-06-24T01:16:10;14.88;96.25
49489;SHT31;35382;51.484;11.476;2023-06-24T01:18:19;14.68;96.18
49489;SHT31;35382;51.484;11.476;2023-06-24T01:20:08;14.54;95.92
49489;SHT31;35382;51.484;11.476;2023-06-24T01:24:15;14.38;96.42
49489;SHT31;35382;51.484;11.476;2023-06-24T01:26:20;14.33;96.49
49489;SHT31;35382;51.484;11.476;2023-06-24T01:28:19;14.26;96.29
49489;SHT31;35382;51.484;11.476;2023-06-24T01:30:17;14.10;96.12
49489;SHT31;35382;51.484;11.476;2023-06-24T01:32:06;13.97;96.73
49489;SHT31;35382;51.484;11.476;2023-06-24T01:34:01;13.94;96.93
49489;SHT31;35382;51.484;11.476;2023-06-24T01:35:42;13.83;97.24
49489;SHT31;35382;51.484;11.476;2023-06-24T01:37:56;13.72;97.54
49489;SHT31;35382;51.484;11.476;2023-06-24T01:39:50;13.67;97.45
49489;SHT31;35382;51.484;11.476;2023-06-24T01:41:40;13.70;97.47
49489;SHT31;35382;51.484;11.476;2023-06-24T01:43:23;13.62;97.32
49489;SHT31;35382;51.484;11.476;2023-06-24T01:45:07;13.65;97.27
49489;SHT31;35382;51.484;11.476;2023-06-24T01:46:51;13.42;97.19
49489;SHT31;35382;51.484;11.476;2023-06-24T01:48:35;13.53;96.52
49489;SHT31;35382;51.484;11.476;2023-06-24T01:50:19;13.56;96.70
49489;SHT31;35382;51.484;11.476;2023-06-24T01:52:01;13.36;96.75
49489;SHT31;35382;51.484;11.476;2023-06-24T01:53:53;13.29;96.56
49489;SHT31;35382;51.484;11.476;2023-06-24T01:55:36;13.20;96.92
49489;SHT31;35382;51.484;11.476;2023-06-24T01:57:20;13.30;96.91
49489;SHT31;35382;51.484;11.476;2023-06-24T01:59:03;13.22;97.06
49489;SHT31;35382;51.484;11.476;2023-06-24T02:00:46;13.19;96.90
49489;SHT31;35382;51.484;11.476;2023-06-24T02:02:30;13.18;97.29
49489;SHT31;35382;51.484;11.476;2023-06-24T02:04:12;13.19;96.80
49489;SHT31;35382;51.484;11.476;2023-06-24T02:05:54;13.25;96.25
49489;SHT31;35382;51.484;11.476;2023-06-24T02:07:37;13.14;96.18
49489;SHT31;35382;51.484;11.476;2023-06-24T02:09:20;13.20;96.28
49489;SHT31;35382;51.484;11.476;2023-06-24T02:11:02;12.94;96.49
49489;SHT31;35382;51.484;11.476;2023-06-24T02:12:46;12.92;96.67
49489;SHT31;35382;51.484;11.476;2023-06-24T02:14:28;12.92;96.32
49489;SHT31;35382;51.484;11.476;2023-06-24T02:16:10;12.67;95.61
49489;SHT31;35382;51.484;11.476;2023-06-24T02:17:52;12.62;96.02
49489;SHT31;35382;51.484;11.476;2023-06-24T02:19:36;12.58;96.05
49489;SHT31;35382;51.484;11.476;2023-06-24T02:21:18;12.58;95.03
49489;SHT31;35382;51.484;11.476;2023-06-24T02:23:01;12.55;94.86
49489;SHT31;35382;51.484;11.476;2023-06-24T02:24:42;12.51;94.95
49489;SHT31;35382;51.484;11.476;2023-06-24T02:26:25;12.48;94.96
49489;SHT31;35382;51.484;11.476;2023-06-24T02:28:08;12.42;94.97
49489;SHT31;35382;51.484;11.476;2023-06-24T02:29:49;12.37;94.38
49489;SHT31;35382;51.484;11.476;2023-06-24T02:31:32;12.27;94.45
49489;SHT31;35382;51.484;11.476;2023-06-24T02:33:13;12.13;93.90
49489;SHT31;35382;51.484;11.476;2023-06-24T02:34:57;12.04;94.41
49489;SHT31;35382;51.484;11.476;2023-06-24T02:36:39;11.90;95.10
49489;SHT31;35382;51.484;11.476;2023-06-24T02:38:20;11.90;95.46
49489;SHT31;35382;51.484;11.476;2023-06-24T02:40:02;11.82;95.80
49489;SHT31;35382;51.484;11.476;2023-06-24T02:41:45;11.73;96.01
49489;SHT31;35382;51.484;11.476;2023-06-24T02:43:28;11.70;95.83
49489;SHT31;35382;51.484;11.476;2023-06-24T02:45:09;11.73;95.82
49489;SHT31;35382;51.484;11.476;2023-06-24T02:46:53;11.69;96.12
49489;SHT31;35382;51.484;11.476;2023-06-24T02:48:36;11.69;95.91
49489;SHT31;35382;51.484;11.476;2023-06-24T02:50:19;11.58;96.00
49489;SHT31;35382;51.484;11.476;2023-06-24T02:52:02;11.66;96.07
49489;SHT31;35382;51.484;11.476;2023-06-24T02:53:45;11.50;96.28
49489;SHT31;35382;51.484;11.476;2023-06-24T02:55:27;11.38;96.61
49489;SHT31;35382;51.484;11.476;2023-06-24T02:57:14;11.39;96.50
49489;SHT31;35382;51.484;11.476;2023-06-24T02:59:15;11.43;95.82
49489;SHT31;35382;51.484;11.476;2023-06-24T03:01:00;11.46;95.64
49489;SHT31;35382;51.484;11.476;2023-06-24T03:02:46;11.43;96.00
49489;SHT31;35382;51.484;11.476;2023-06-24T03:04:28;11.49;95.74
49489;SHT31;35382;51.484;11.476;2023-06-24T03:06:09;11.46;95.10
49489;SHT31;35382;51.484;11.476;2023-06-24T03:07:53;11.35;95.39
49489;SHT31;35382;51.484;11.476;2023-06-24T03:09:36;11.36;95.32
49489;SHT31;35382;51.484;11.476;2023-06-24T03:11:17;11.30;95.19
49489;SHT31;35382;51.484;11.476;2023-06-24T03:12:58;11.29;95.17
49489;SHT31;35382;51.484;11.476;2023-06-24T03:14:47;11.32;95.13
49489;SHT31;35382;51.484;11.476;2023-06-24T03:16:28;11.18;95.20
49489;SHT31;35382;51.484;11.476;2023-06-24T03:18:17;11.19;95.37
49489;SHT31;35382;51.484;11.476;2023-06-24T03:20:00;11.11;95.94
49489;SHT31;35382;51.484;11.476;2023-06-24T03:21:41;11.18;95.74
49489;SHT31;35382;51.484;11.476;2023-06-24T03:23:27;11.23;96.22
49489;SHT31;35382;51.484;11.476;2023-06-24T03:25:08;11.12;96.45
49489;SHT31;35382;51.484;11.476;2023-06-24T03:26:49;11.12;96.83
49489;SHT31;35382;51.484;11.476;2023-06-24T03:28:37;11.26;96.62
49489;SHT31;35382;51.484;11.476;2023-06-24T03:30:25;11.23;96.38
49489;SHT31;35382;51.484;11.476;2023-06-24T03:32:06;11.35;96.23
49489;SHT31;35382;51.484;11.476;2023-06-24T03:33:47;11.35;96.20
49489;SHT31;35382;51.484;11.476;2023-06-24T03:35:30;11.33;96.71
49489;SHT31;35382;51.484;11.476;2023-06-24T03:37:16;11.26;96.78
49489;SHT31;35382;51.484;11.476;2023-06-24T03:38:58;11.25;97.27
49489;SHT31;35382;51.484;11.476;2023-06-24T03:40:39;11.32;97.56
49489;SHT31;35382;51.484;11.476;2023-06-24T03:42:20;11.53;97.57
49489;SHT31;35382;51.484;11.476;2023-06-24T03:44:01;11.77;97.01
49489;SHT31;35382;51.484;11.476;2023-06-24T03:45:42;11.87;96.81
49489;SHT31;35382;51.484;11.476;2023-06-24T03:47:23;11.94;96.89
49489;SHT31;35382;51.484;11.476;2023-06-24T03:49:04;12.01;96.73
49489;SHT31;35382;51.484;11.476;2023-06-24T03:50:45;12.26;96.31
49489;SHT31;35382;51.484;11.476;2023-06-24T03:52:26;12.65;95.23
49489;SHT31;35382;51.484;11.476;2023-06-24T03:54:07;12.96;93.99
49489;SHT31;35382;51.484;11.476;2023-06-24T03:55:48;13.34;92.38
49489;SHT31;35382;51.484;11.476;2023-06-24T03:57:30;13.50;91.39
49489;SHT31;35382;51.484;11.476;2023-06-24T03:59:11;13.80;89.87
49489;SHT31;35382;51.484;11.476;2023-06-24T04:00:53;14.03;88.73
49489;SHT31;35382;51.484;11.476;2023-06-24T04:02:37;14.23;87.87
49489;SHT31;35382;51.484;11.476;2023-06-24T04:04:18;14.41;87.80
49489;SHT31;35382;51.484;11.476;2023-06-24T04:05:59;14.73;86.82
49489;SHT31;35382;51.484;11.476;2023-06-24T04:07:42;14.85;86.36
49489;SHT31;35382;51.484;11.476;2023-06-24T04:09:29;15.11;85.40
49489;SHT31;35382;51.484;11.476;2023-06-24T04:11:10;15.34;84.98
49489;SHT31;35382;51.484;11.476;2023-06-24T04:12:52;15.38;85.34
49489;SHT31;35382;51.484;11.476;2023-06-24T04:14:33;15.46;84.95
49489;SHT31;35382;51.484;11.476;2023-06-24T04:16:14;15.58;84.39
49489;SHT31;35382;51.484;11.476;2023-06-24T04:17:55;15.75;83.60
49489;SHT31;35382;51.484;11.476;2023-06-24T04:19:36;15.90;83.00
49489;SHT31;35382;51.484;11.476;2023-06-24T04:21:17;15.95;83.76
49489;SHT31;35382;51.484;11.476;2023-06-24T04:22:58;15.93;84.73
49489;SHT31;35382;51.484;11.476;2023-06-24T04:24:42;15.93;84.74
49489;SHT31;35382;51.484;11.476;2023-06-24T04:26:23;16.14;84.32
49489;SHT31;35382;51.484;11.476;2023-06-24T04:28:05;16.10;83.86
49489;SHT31;35382;51.484;11.476;2023-06-24T04:29:46;16.31;84.17
49489;SHT31;35382;51.484;11.476;2023-06-24T04:31:27;16.10;84.87
49489;SHT31;35382;51.484;11.476;2023-06-24T04:33:08;16.36;84.45
49489;SHT31;35382;51.484;11.476;2023-06-24T04:34:49;16.20;84.32
49489;SHT31;35382;51.484;11.476;2023-06-24T04:36:31;16.30;84.75
49489;SHT31;35382;51.484;11.476;2023-06-24T04:38:12;16.17;84.81
49489;SHT31;35382;51.484;11.476;2023-06-24T04:39:58;16.17;85.63
49489;SHT31;35382;51.484;11.476;2023-06-24T04:41:42;16.03;86.01
49489;SHT31;35382;51.484;11.476;2023-06-24T04:43:23;16.21;85.75
49489;SHT31;35382;51.484;11.476;2023-06-24T04:45:04;16.26;84.93
49489;SHT31;35382;51.484;11.476;2023-06-24T04:46:46;16.57;85.32
49489;SHT31;35382;51.484;11.476;2023-06-24T04:48:26;16.64;84.10
49489;SHT31;35382;51.484;11.476;2023-06-24T04:50:08;16.03;85.71
49489;SHT31;35382;51.484;11.476;2023-06-24T04:51:51;16.05;87.04
49489;SHT31;35382;51.484;11.476;2023-06-24T04:53:32;15.83;86.83
49489;SHT31;35382;51.484;11.476;2023-06-24T04:55:15;15.78;88.19
49489;SHT31;35382;51.484;11.476;2023-06-24T04:56:57;15.66;88.99
49489;SHT31;35382;51.484;11.476;2023-06-24T04:58:38;15.61;89.66
49489;SHT31;35382;51.484;11.476;2023-06-24T05:00:21;15.69;90.20
49489;SHT31;35382;51.484;11.476;2023-06-24T05:02:05;15.67;90.41
49489;SHT31;35382;51.484;11.476;2023-06-24T05:03:47;15.75;91.03
49489;SHT31;35382;51.484;11.476;2023-06-24T05:05:27;15.85;91.24
49489;SHT31;35382;51.484;11.476;2023-06-24T05:07:08;16.00;90.49
49489;SHT31;35382;51.484;11.476;2023-06-24T05:08:49;16.17;89.21
49489;SHT31;35382;51.484;11.476;2023-06-24T05:10:30;16.23;88.85
49489;SHT31;35382;51.484;11.476;2023-06-24T05:12:11;16.23;89.48
49489;SHT31;35382;51.484;11.476;2023-06-24T05:13:52;16.33;89.42
49489;SHT31;35382;51.484;11.476;2023-06-24T05:15:33;16.80;86.43
49489;SHT31;35382;51.484;11.476;2023-06-24T05:17:14;17.31;84.95
49489;SHT31;35382;51.484;11.476;2023-06-24T05:18:55;17.27;83.73
49489;SHT31;35382;51.484;11.476;2023-06-24T05:20:36;17.42;84.21
49489;SHT31;35382;51.484;11.476;2023-06-24T05:22:17;17.62;84.38
49489;SHT31;35382;51.484;11.476;2023-06-24T05:23:58;17.73;85.47
49489;SHT31;35382;51.484;11.476;2023-06-24T05:25:39;17.63;84.42
49489;SHT31;35382;51.484;11.476;2023-06-24T05:27:20;17.83;83.32
49489;SHT31;35382;51.484;11.476;2023-06-24T05:29:01;18.05;84.41
49489;SHT31;35382;51.484;11.476;2023-06-24T05:30:44;18.44;84.15
49489;SHT31;35382;51.484;11.476;2023-06-24T05:32:26;18.57;83.40
49489;SHT31;35382;51.484;11.476;2023-06-24T05:34:07;18.74;82.53
49489;SHT31;35382;51.484;11.476;2023-06-24T05:35:48;18.78;81.65
49489;SHT31;35382;51.484;11.476;2023-06-24T05:37:30;18.87;81.35
49489;SHT31;35382;51.484;11.476;2023-06-24T05:39:11;18.90;81.04
49489;SHT31;35382;51.484;11.476;2023-06-24T05:40:52;18.80;81.73
49489;SHT31;35382;51.484;11.476;2023-06-24T05:42:33;18.50;82.80
49489;SHT31;35382;51.484;11.476;2023-06-24T05:44:14;18.54;82.76
49489;SHT31;35382;51.484;11.476;2023-06-24T05:45:55;18.61;83.40
49489;SHT31;35382;51.484;11.476;2023-06-24T05:47:37;18.78;83.01
49489;SHT31;35382;51.484;11.476;2023-06-24T05:49:18;18.95;82.23
49489;SHT31;35382;51.484;11.476;2023-06-24T05:50:59;19.01;81.37
49489;SHT31;35382;51.484;11.476;2023-06-24T05:52:40;18.54;82.81
49489;SHT31;35382;51.484;11.476;2023-06-24T05:54:21;19.00;81.25
49489;SHT31;35382;51.484;11.476;2023-06-24T05:56:02;18.56;81.46
49489;SHT31;35382;51.484;11.476;2023-06-24T05:57:43;17.96;84.01
49489;SHT31;35382;51.484;11.476;2023-06-24T05:59:24;18.34;83.07
49489;SHT31;35382;51.484;11.476;2023-06-24T06:01:05;18.27;83.26
49489;SHT31;35382;51.484;11.476;2023-06-24T06:02:46;18.53;83.31
49489;SHT31;35382;51.484;11.476;2023-06-24T06:04:28;17.89;84.48
49489;SHT31;35382;51.484;11.476;2023-06-24T06:06:08;17.63;85.01
49489;SHT31;35382;51.484;11.476;2023-06-24T06:07:51;17.38;86.32
49489;SHT31;35382;51.484;11.476;2023-06-24T06:09:33;17.46;85.51
49489;SHT31;35382;51.484;11.476;2023-06-24T06:11:14;17.46;85.98
49489;SHT31;35382;51.484;11.476;2023-06-24T06:12:55;17.15;87.62
49489;SHT31;35382;51.484;11.476;2023-06-24T06:14:36;16.63;89.57
49489;SHT31;35382;51.484;11.476;2023-06-24T06:16:17;16.92;88.30
49489;SHT31;35382;51.484;11.476;2023-06-24T06:17:58;16.87;88.74
49489;SHT31;35382;51.484;11.476;2023-06-24T06:19:39;17.10;88.36
49489;SHT31;35382;51.484;11.476;2023-06-24T06:21:22;17.90;85.92
49489;SHT31;35382;51.484;11.476;2023-06-24T06:23:04;17.53;86.95
49489;SHT31;35382;51.484;11.476;2023-06-24T06:24:45;17.42;87.61
49489;SHT31;35382;51.484;11.476;2023-06-24T06:26:26;17.39;87.56
49489;SHT31;35382;51.484;11.476;2023-06-24T06:28:08;17.11;87.15
49489;SHT31;35382;51.484;11.476;2023-06-24T06:29:49;17.19;88.57
49489;SHT31;35382;51.484;11.476;2023-06-24T06:31:30;17.29;88.48
49489;SHT31;35382;51.484;11.476;2023-06-24T06:33:11;17.38;87.47
49489;SHT31;35382;51.484;11.476;2023-06-24T06:34:52;17.38;87.35
49489;SHT31;35382;51.484;11.476;2023-06-24T06:36:33;17.25;88.27
49489;SHT31;35382;51.484;11.476;2023-06-24T06:38:14;17.18;88.85
49489;SHT31;35382;51.484;11.476;2023-06-24T06:39:55;16.81;89.17
49489;SHT31;35382;51.484;11.476;2023-06-24T06:41:36;16.50;90.03
49489;SHT31;35382;51.484;11.476;2023-06-24T06:43:17;16.43;90.22
49489;SHT31;35382;51.484;11.476;2023-06-24T06:44:58;16.34;89.65
49489;SHT31;35382;51.484;11.476;2023-06-24T06:46:39;16.30;88.85
49489;SHT31;35382;51.484;11.476;2023-06-24T06:48:20;16.40;88.33
49489;SHT31;35382;51.484;11.476;2023-06-24T06:50:01;16.56;88.58
49489;SHT31;35382;51.484;11.476;2023-06-24T06:51:41;16.85;87.33
49489;SHT31;35382;51.484;11.476;2023-06-24T06:53:22;17.48;87.79
49489;SHT31;35382;51.484;11.476;2023-06-24T06:55:04;17.75;86.66
49489;SHT31;35382;51.484;11.476;2023-06-24T06:56:45;18.03;87.01
49489;SHT31;35382;51.484;11.476;2023-06-24T06:58:25;18.44;83.79
49489;SHT31;35382;51.484;11.476;2023-06-24T07:00:07;18.20;84.67
49489;SHT31;35382;51.484;11.476;2023-06-24T07:01:48;17.93;86.21
49489;SHT31;35382;51.484;11.476;2023-06-24T07:03:29;17.69;87.08
49489;SHT31;35382;51.484;11.476;2023-06-24T07:05:10;17.21;88.84
49489;SHT31;35382;51.484;11.476;2023-06-24T07:06:52;17.48;88.03
49489;SHT31;35382;51.484;11.476;2023-06-24T07:08:33;17.28;87.98
49489;SHT31;35382;51.484;11.476;2023-06-24T07:10:14;17.11;87.13
49489;SHT31;35382;51.484;11.476;2023-06-24T07:11:55;16.89;87.55
49489;SHT31;35382;51.484;11.476;2023-06-24T07:13:36;16.64;90.62
49489;SHT31;35382;51.484;11.476;2023-06-24T07:15:17;16.78;89.69
49489;SHT31;35382;51.484;11.476;2023-06-24T07:17:00;16.97;89.19
49489;SHT31;35382;51.484;11.476;2023-06-24T07:18:41;16.97;88.90
49489;SHT31;35382;51.484;11.476;2023-06-24T07:20:22;17.58;86.15
49489;SHT31;35382;51.484;11.476;2023-06-24T07:22:03;18.64;84.41
49489;SHT31;35382;51.484;11.476;2023-06-24T07:23:44;18.36;85.12
49489;SHT31;35382;51.484;11.476;2023-06-24T07:25:25;18.68;85.05
49489;SHT31;35382;51.484;11.476;2023-06-24T07:27:07;19.85;82.21
49489;SHT31;35382;51.484;11.476;2023-06-24T07:28:48;20.36;78.18
49489;SHT31;35382;51.484;11.476;2023-06-24T07:30:29;20.74;76.54
49489;SHT31;35382;51.484;11.476;2023-06-24T07:32:10;20.37;77.20
49489;SHT31;35382;51.484;11.476;2023-06-24T07:33:51;19.63;79.28
49489;SHT31;35382;51.484;11.476;2023-06-24T07:35:32;18.98;79.64
49489;SHT31;35382;51.484;11.476;2023-06-24T07:37:15;18.73;79.91
49489;SHT31;35382;51.484;11.476;2023-06-24T07:38:59;18.53;79.64
49489;SHT31;35382;51.484;11.476;2023-06-24T07:40:40;17.99;81.36
49489;SHT31;35382;51.484;11.476;2023-06-24T07:42:21;17.69;81.60
49489;SHT31;35382;51.484;11.476;2023-06-24T07:44:02;17.93;83.68
49489;SHT31;35382;51.484;11.476;2023-06-24T07:45:43;18.49;80.41
49489;SHT31;35382;51.484;11.476;2023-06-24T07:47:24;19.21;80.80
49489;SHT31;35382;51.484;11.476;2023-06-24T07:49:05;19.79;79.22
49489;SHT31;35382;51.484;11.476;2023-06-24T07:50:46;20.50;76.60
49489;SHT31;35382;51.484;11.476;2023-06-24T07:52:29;20.97;72.62
49489;SHT31;35382;51.484;11.476;2023-06-24T07:54:11;21.01;76.57
49489;SHT31;35382;51.484;11.476;2023-06-24T07:55:52;20.91;76.89
49489;SHT31;35382;51.484;11.476;2023-06-24T07:57:33;19.58;80.25
49489;SHT31;35382;51.484;11.476;2023-06-24T07:59:14;19.17;82.05
49489;SHT31;35382;51.484;11.476;2023-06-24T08:00:55;19.71;78.86
49489;SHT31;35382;51.484;11.476;2023-06-24T08:02:36;20.08;78.23
49489;SHT31;35382;51.484;11.476;2023-06-24T08:04:17;20.10;78.35
49489;SHT31;35382;51.484;11.476;2023-06-24T08:05:58;20.12;77.10
49489;SHT31;35382;51.484;11.476;2023-06-24T08:07:39;20.23;77.02
49489;SHT31;35382;51.484;11.476;2023-06-24T08:09:20;20.77;74.45
49489;SHT31;35382;51.484;11.476;2023-06-24T08:11:02;20.93;73.82
49489;SHT31;35382;51.484;11.476;2023-06-24T08:12:43;20.72;74.99
49489;SHT31;35382;51.484;11.476;2023-06-24T08:14:24;20.87;75.15
49489;SHT31;35382;51.484;11.476;2023-06-24T08:16:05;20.96;72.70
49489;SHT31;35382;51.484;11.476;2023-06-24T08:17:54;20.97;74.59
49489;SHT31;35382;51.484;11.476;2023-06-24T08:19:35;21.08;74.65
49489;SHT31;35382;51.484;11.476;2023-06-24T08:21:16;21.18;75.22
49489;SHT31;35382;51.484;11.476;2023-06-24T08:22:56;20.37;75.44
49489;SHT31;35382;51.484;11.476;2023-06-24T08:24:39;20.09;75.94
49489;SHT31;35382;51.484;11.476;2023-06-24T08:26:20;20.46;73.91
49489;SHT31;35382;51.484;11.476;2023-06-24T08:28:03;20.70;74.52
49489;SHT31;35382;51.484;11.476;2023-06-24T08:29:44;20.83;73.88
49489;SHT31;35382;51.484;11.476;2023-06-24T08:31:25;20.77;75.91
49489;SHT31;35382;51.484;11.476;2023-06-24T08:33:09;21.30;76.69
49489;SHT31;35382;51.484;11.476;2023-06-24T08:34:50;21.26;74.15
49489;SHT31;35382;51.484;11.476;2023-06-24T08:36:31;21.32;71.71
49489;SHT31;35382;51.484;11.476;2023-06-24T08:38:12;21.23;72.44
49489;SHT31;35382;51.484;11.476;2023-06-24T08:39:53;21.59;74.93
49489;SHT31;35382;51.484;11.476;2023-06-24T08:41:34;21.84;74.29
49489;SHT31;35382;51.484;11.476;2023-06-24T08:43:17;22.06;71.90
49489;SHT31;35382;51.484;11.476;2023-06-24T08:44:58;22.04;67.16
49489;SHT31;35382;51.484;11.476;2023-06-24T08:46:39;22.23;67.93
49489;SHT31;35382;51.484;11.476;2023-06-24T08:48:22;22.69;71.42
49489;SHT31;35382;51.484;11.476;2023-06-24T08:50:05;22.42;71.78
49489;SHT31;35382;51.484;11.476;2023-06-24T08:53:42;22.93;70.22
49489;SHT31;35382;51.484;11.476;2023-06-24T08:55:26;21.95;70.97
49489;SHT31;35382;51.484;11.476;2023-06-24T08:57:09;21.52;69.31
49489;SHT31;35382;51.484;11.476;2023-06-24T08:58:55;21.91;71.25
49489;SHT31;35382;51.484;11.476;2023-06-24T09:00:36;22.16;71.04
49489;SHT31;35382;51.484;11.476;2023-06-24T09:02:17;22.53;70.05
49489;SHT31;35382;51.484;11.476;2023-06-24T09:03:57;22.13;71.95
49489;SHT31;35382;51.484;11.476;2023-06-24T09:05:38;22.60;71.01
49489;SHT31;35382;51.484;11.476;2023-06-24T09:07:25;22.01;73.25
49489;SHT31;35382;51.484;11.476;2023-06-24T09:09:20;22.48;71.58
49489;SHT31;35382;51.484;11.476;2023-06-24T09:11:01;22.86;70.64
49489;SHT31;35382;51.484;11.476;2023-06-24T09:12:44;22.63;68.67
49489;SHT31;35382;51.484;11.476;2023-06-24T09:14:26;22.13;69.33
49489;SHT31;35382;51.484;11.476;2023-06-24T09:16:12;22.92;71.35
49489;SHT31;35382;51.484;11.476;2023-06-24T09:17:54;22.80;68.02
49489;SHT31;35382;51.484;11.476;2023-06-24T09:19:36;22.84;72.32
49489;SHT31;35382;51.484;11.476;2023-06-24T09:21:27;23.10;71.73
49489;SHT31;35382;51.484;11.476;2023-06-24T09:23:11;22.50;69.37
49489;SHT31;35382;51.484;11.476;2023-06-24T09:24:53;22.26;72.42
49489;SHT31;35382;51.484;11.476;2023-06-24T09:26:34;22.96;70.91
49489;SHT31;35382;51.484;11.476;2023-06-24T09:28:15;22.76;69.08
49489;SHT31;35382;51.484;11.476;2023-06-24T09:29:56;22.96;69.62
49489;SHT31;35382;51.484;11.476;2023-06-24T09:31:48;22.99;69.65
49489;SHT31;35382;51.484;11.476;2023-06-24T09:33:29;22.92;69.35
49489;SHT31;35382;51.484;11.476;2023-06-24T09:35:10;22.76;69.56
49489;SHT31;35382;51.484;11.476;2023-06-24T09:36:56;22.90;69.21
49489;SHT31;35382;51.484;11.476;2023-06-24T09:38:37;23.21;69.82
49489;SHT31;35382;51.484;11.476;2023-06-24T09:40:22;23.33;70.11
49489;SHT31;35382;51.484;11.476;2023-06-24T09:42:04;23.47;68.01
49489;SHT31;35382;51.484;11.476;2023-06-24T09:43:45;23.54;68.35
49489;SHT31;35382;51.484;11.476;2023-06-24T09:45:27;23.37;70.53
49489;SHT31;35382;51.484;11.476;2023-06-24T09:47:11;23.60;67.38
49489;SHT31;35382;51.484;11.476;2023-06-24T09:48:51;23.34;67.39
49489;SHT31;35382;51.484;11.476;2023-06-24T09:50:33;23.36;66.57
49489;SHT31;35382;51.484;11.476;2023-06-24T09:52:14;23.48;68.86
49489;SHT31;35382;51.484;11.476;2023-06-24T09:53:57;23.43;66.73
49489;SHT31;35382;51.484;11.476;2023-06-24T09:55:40;23.53;68.62
49489;SHT31;35382;51.484;11.476;2023-06-24T09:57:28;23.38;69.92
49489;SHT31;35382;51.484;11.476;2023-06-24T09:59:11;23.40;70.95
49489;SHT31;35382;51.484;11.476;2023-06-24T10:00:54;23.40;67.81
49489;SHT31;35382;51.484;11.476;2023-06-24T10:02:35;23.48;67.35
49489;SHT31;35382;51.484;11.476;2023-06-24T10:04:19;23.77;65.91
49489;SHT31;35382;51.484;11.476;2023-06-24T10:06:01;24.09;66.65
49489;SHT31;35382;51.484;11.476;2023-06-24T10:07:43;24.08;65.82
49489;SHT31;35382;51.484;11.476;2023-06-24T10:09:23;24.24;66.35
49489;SHT31;35382;51.484;11.476;2023-06-24T10:11:06;24.21;63.90
49489;SHT31;35382;51.484;11.476;2023-06-24T10:12:47;23.86;68.20
49489;SHT31;35382;51.484;11.476;2023-06-24T10:14:30;23.74;67.61
49489;SHT31;35382;51.484;11.476;2023-06-24T10:16:11;23.67;67.47
49489;SHT31;35382;51.484;11.476;2023-06-24T10:17:52;23.44;71.78
49489;SHT31;35382;51.484;11.476;2023-06-24T10:19:40;23.71;69.28
49489;SHT31;35382;51.484;11.476;2023-06-24T10:21:21;23.67;66.79
49489;SHT31;35382;51.484;11.476;2023-06-24T10:23:06;23.77;67.85
49489;SHT31;35382;51.484;11.476;2023-06-24T10:24:46;24.18;66.40
49489;SHT31;35382;51.484;11.476;2023-06-24T10:26:29;24.33;66.99
49489;SHT31;35382;51.484;11.476;2023-06-24T10:28:10;23.98;66.50
49489;SHT31;35382;51.484;11.476;2023-06-24T10:29:52;24.06;65.70
49489;SHT31;35382;51.484;11.476;2023-06-24T10:33:20;24.85;63.94
49489;SHT31;35382;51.484;11.476;2023-06-24T10:35:03;24.76;65.88
49489;SHT31;35382;51.484;11.476;2023-06-24T10:36:57;24.73;65.82
49489;SHT31;35382;51.484;11.476;2023-06-24T10:38:38;24.82;63.43
49489;SHT31;35382;51.484;11.476;2023-06-24T10:40:39;24.80;69.55
49489;SHT31;35382;51.484;11.476;2023-06-24T10:44:14;25.05;66.56
49489;SHT31;35382;51.484;11.476;2023-06-24T10:45:57;25.23;62.96